Time;durP1;ratioP1;P1;durP2;ratioP2;P2;SDS_P1;SDS_P2;PMS_P1;PMS_P2;Temp;Humidity;BMP_temperature;BMP_pressure;BME280_temperature;BME280_humidity;BME280_pressure;Samples;Min_cycle;Max_cycle;Signal;HPM_P1;HPM_P2
2021/07/02 00:02:24;;;;;;;4.78;1.27;;;15.80;85.20;;;;;;6091616;23;20089;-65
2021/07/02 00:04:51;;;;;;;7.35;1.27;;;15.80;85.10;;;;;;6094701;23;19998;-65
2021/07/02 00:07:18;;;;;;;3.65;1.20;;;15.80;85.00;;;;;;6093106;23;20014;-65
2021/07/02 00:09:44;;;;;;;8.85;2.38;;;15.80;84.90;;;;;;6094228;23;20011;-65
2021/07/02 00:12:11;;;;;;;5.38;1.33;;;15.70;84.70;;;;;;6093353;23;20085;-65
2021/07/02 00:14:37;;;;;;;4.13;1.60;;;15.70;84.60;;;;;;6094183;23;20439;-65
2021/07/02 00:17:04;;;;;;;4.75;1.50;;;15.70;84.60;;;;;;6094021;23;20494;-65
2021/07/02 00:19:33;;;;;;;7.00;1.70;;;15.70;84.50;;;;;;6093370;23;20472;-65
2021/07/02 00:21:59;;;;;;;5.88;2.40;;;15.70;84.40;;;;;;6094276;23;20419;-65
2021/07/02 00:24:25;;;;;;;6.38;1.50;;;15.70;84.40;;;;;;6093111;23;20005;-65
2021/07/02 00:26:53;;;;;;;4.10;1.15;;;15.70;84.40;;;;;;6094301;23;20003;-65
2021/07/02 00:29:19;;;;;;;6.00;2.17;;;15.70;84.40;;;;;;6092883;23;20002;-65
2021/07/02 00:31:46;;;;;;;6.85;1.63;;;15.70;84.40;;;;;;6094445;23;20002;-65
2021/07/02 00:34:12;;;;;;;5.80;1.55;;;15.60;84.40;;;;;;6093829;23;20033;-66
2021/07/02 00:36:39;;;;;;;5.90;1.27;;;15.70;84.50;;;;;;6093544;23;20031;-65
2021/07/02 00:39:07;;;;;;;7.28;1.38;;;15.70;84.50;;;;;;6094083;23;20030;-65
2021/07/02 00:41:34;;;;;;;7.88;2.55;;;15.70;84.60;;;;;;6092658;23;20081;-65
2021/07/02 00:44:01;;;;;;;3.30;1.20;;;15.70;84.60;;;;;;6094058;23;20415;-65
2021/07/02 00:46:27;;;;;;;8.50;2.28;;;15.70;84.70;;;;;;6093359;23;20033;-65
2021/07/02 00:48:54;;;;;;;8.45;1.42;;;15.60;84.70;;;;;;6093849;23;20067;-65
2021/07/02 00:51:21;;;;;;;8.77;3.03;;;15.70;84.80;;;;;;6093568;23;20061;-65
2021/07/02 00:53:48;;;;;;;4.30;1.17;;;15.60;84.90;;;;;;6093392;23;20022;-65
2021/07/02 00:56:19;;;;;;;7.15;1.40;;;15.70;85.00;;;;;;6094020;23;20085;-65
2021/07/02 00:58:46;;;;;;;4.82;1.25;;;15.70;85.00;;;;;;6092777;23;20005;-65
2021/07/02 01:01:16;;;;;;;3.88;1.70;;;15.70;85.10;;;;;;6094036;23;20735;-65
2021/07/02 01:03:45;;;;;;;6.68;2.53;;;15.70;85.20;;;;;;6092550;23;20003;-65
2021/07/02 01:06:12;;;;;;;3.50;1.67;;;15.70;85.30;;;;;;6094000;23;19999;-65
2021/07/02 01:08:41;;;;;;;6.38;1.70;;;15.70;85.30;;;;;;6092989;23;20006;-65
2021/07/02 01:11:09;;;;;;;7.10;1.77;;;15.60;85.30;;;;;;6093473;23;20015;-65
2021/07/02 01:13:35;;;;;;;10.63;1.92;;;15.70;85.40;;;;;;6093917;23;20085;-66
2021/07/02 01:16:02;;;;;;;7.43;1.73;;;15.70;85.40;;;;;;6092658;23;20094;-65
2021/07/02 01:18:34;;;;;;;6.03;2.35;;;15.70;85.50;;;;;;6093878;23;20010;-66
2021/07/02 01:21:01;;;;;;;4.93;1.40;;;15.70;85.50;;;;;;6092421;23;20006;-65
2021/07/02 01:23:27;;;;;;;8.73;1.85;;;15.70;85.50;;;;;;6093626;23;19999;-65
2021/07/02 01:25:55;;;;;;;7.93;2.17;;;15.70;85.50;;;;;;6092669;23;20009;-65
2021/07/02 01:28:22;;;;;;;5.68;1.65;;;15.70;85.60;;;;;;6093620;23;19998;-66
2021/07/02 01:30:49;;;;;;;5.95;1.55;;;15.70;85.60;;;;;;6092996;23;20422;-65
2021/07/02 01:33:16;;;;;;;8.27;2.13;;;15.70;85.60;;;;;;6090780;23;20014;-66
2021/07/02 01:35:43;;;;;;;5.43;1.40;;;15.70;85.60;;;;;;6093418;23;20363;-66
2021/07/02 01:38:09;;;;;;;7.60;2.40;;;15.70;85.70;;;;;;6092366;23;19999;-66
2021/07/02 01:40:36;;;;;;;6.82;1.73;;;15.70;85.70;;;;;;6093646;23;20388;-66
2021/07/02 01:43:03;;;;;;;6.70;2.45;;;15.70;85.70;;;;;;6092403;23;20049;-65
2021/07/02 01:45:30;;;;;;;3.65;1.55;;;15.70;85.60;;;;;;6093763;23;20002;-66
2021/07/02 01:47:56;;;;;;;3.40;1.38;;;15.70;86.20;;;;;;6093158;23;19999;-65
2021/07/02 01:50:25;;;;;;;4.47;2.35;;;15.70;85.60;;;;;;6092862;23;19998;-65
2021/07/02 01:52:53;;;;;;;2.47;0.95;;;15.70;85.50;;;;;;6093471;23;20431;-66
2021/07/02 01:55:21;;;;;;;4.43;1.02;;;15.70;85.50;;;;;;6092421;23;20015;-66
2021/07/02 01:57:47;;;;;;;3.28;1.70;;;15.70;85.50;;;;;;6093622;23;20006;-66
2021/07/02 02:00:15;;;;;;;6.50;1.83;;;15.60;85.40;;;;;;6093104;23;20009;-66
2021/07/02 02:02:41;;;;;;;4.80;1.13;;;15.70;85.50;;;;;;6095619;23;20312;-65
2021/07/02 02:05:08;;;;;;;3.83;1.38;;;15.70;85.40;;;;;;6095114;23;20009;-66
2021/07/02 02:07:35;;;;;;;2.97;1.33;;;15.60;85.30;;;;;;6094820;23;20013;-65
2021/07/02 02:10:01;;;;;;;6.45;1.23;;;15.60;85.40;;;;;;6095628;23;20018;-66
2021/07/02 02:12:28;;;;;;;5.90;1.48;;;15.60;85.40;;;;;;6094306;23;20002;-66
2021/07/02 02:14:55;;;;;;;7.35;2.03;;;15.60;85.40;;;;;;6095914;23;20454;-66
2021/07/02 02:17:22;;;;;;;1.98;0.77;;;15.60;85.40;;;;;;6094303;23;20002;-65
2021/07/02 02:19:48;;;;;;;7.07;1.40;;;15.60;85.40;;;;;;6095550;23;20427;-66
2021/07/02 02:22:15;;;;;;;2.38;0.88;;;15.60;85.30;;;;;;6094870;23;20006;-66
2021/07/02 02:24:41;;;;;;;3.33;1.88;;;15.60;85.30;;;;;;6095094;23;20006;-66
2021/07/02 02:27:09;;;;;;;2.17;1.17;;;15.60;85.30;;;;;;6095399;23;20438;-66
2021/07/02 02:29:36;;;;;;;4.47;1.33;;;15.60;85.30;;;;;;6094234;23;19994;-66
2021/07/02 02:32:03;;;;;;;3.72;1.63;;;15.60;85.20;;;;;;6095706;23;20347;-66
2021/07/02 02:34:29;;;;;;;2.90;1.23;;;15.60;85.20;;;;;;6093863;23;20014;-66
2021/07/02 02:36:55;;;;;;;5.13;2.55;;;15.60;85.10;;;;;;6095367;23;20030;-66
2021/07/02 02:39:22;;;;;;;4.55;1.48;;;15.60;84.90;;;;;;6094276;23;20050;-66
2021/07/02 02:41:48;;;;;;;2.75;1.08;;;15.60;84.90;;;;;;6095178;23;20061;-66
2021/07/02 02:44:15;;;;;;;3.92;1.05;;;15.60;84.90;;;;;;6095366;23;19998;-66
2021/07/02 02:46:42;;;;;;;6.63;2.03;;;15.60;84.90;;;;;;6094331;23;20002;-66
2021/07/02 02:49:08;;;;;;;5.18;1.58;;;15.60;84.90;;;;;;6095076;23;20006;-66
2021/07/02 02:51:35;;;;;;;4.88;1.67;;;15.60;84.90;;;;;;6094174;23;20016;-66
2021/07/02 02:54:01;;;;;;;5.28;1.40;;;15.60;84.90;;;;;;6094840;23;20014;-66
2021/07/02 02:56:28;;;;;;;4.78;1.45;;;15.60;84.80;;;;;;6093947;23;20006;-66
2021/07/02 02:58:54;;;;;;;4.18;1.35;;;15.60;84.80;;;;;;6095260;23;20030;-66
2021/07/02 03:01:21;;;;;;;3.97;1.23;;;15.60;84.80;;;;;;6094383;23;20003;-66
2021/07/02 03:03:47;;;;;;;3.50;2.13;;;15.60;84.80;;;;;;6093979;23;19999;-66
2021/07/02 03:06:14;;;;;;;6.90;1.83;;;15.60;84.70;;;;;;6095321;23;20002;-66
2021/07/02 03:08:41;;;;;;;4.18;1.27;;;15.60;84.70;;;;;;6093587;23;20003;-66
2021/07/02 03:11:07;;;;;;;5.22;1.60;;;15.60;84.70;;;;;;6094989;23;20423;-65
2021/07/02 03:13:34;;;;;;;5.18;1.90;;;15.60;84.60;;;;;;6093663;23;20049;-66
2021/07/02 03:16:00;;;;;;;3.38;1.23;;;15.60;84.70;;;;;;6095076;23;20014;-65
2021/07/02 03:18:27;;;;;;;6.80;2.13;;;15.60;84.60;;;;;;6094542;23;20050;-65
2021/07/02 03:20:53;;;;;;;3.28;1.63;;;15.60;84.60;;;;;;6092899;23;20029;-65
2021/07/02 03:23:20;;;;;;;10.50;2.50;;;15.60;84.60;;;;;;6094712;23;19998;-65
2021/07/02 03:25:46;;;;;;;6.45;1.35;;;15.60;84.60;;;;;;6093900;23;20006;-66
2021/07/02 03:28:13;;;;;;;5.07;1.67;;;15.60;84.70;;;;;;6094860;23;20006;-66
2021/07/02 03:30:39;;;;;;;7.38;2.08;;;15.60;84.70;;;;;;6093630;23;20377;-65
2021/07/02 03:33:06;;;;;;;6.15;1.55;;;15.60;84.70;;;;;;6095224;23;20030;-66
2021/07/02 03:35:32;;;;;;;11.25;3.05;;;15.60;84.70;;;;;;6093319;23;20010;-65
2021/07/02 03:37:58;;;;;;;5.32;1.90;;;15.60;84.70;;;;;;6094813;23;20030;-65
2021/07/02 03:40:25;;;;;;;2.63;1.95;;;15.60;84.70;;;;;;6094316;23;20015;-65
2021/07/02 03:42:51;;;;;;;4.78;1.85;;;15.60;84.70;;;;;;6094345;23;20327;-65
2021/07/02 03:45:18;;;;;;;4.30;1.30;;;15.60;84.80;;;;;;6094790;23;19999;-65
2021/07/02 03:47:45;;;;;;;5.70;1.42;;;15.60;84.80;;;;;;6093475;23;20007;-65
2021/07/02 03:50:12;;;;;;;10.73;2.50;;;15.60;84.80;;;;;;6093107;23;19998;-66
2021/07/02 03:52:38;;;;;;;5.85;1.75;;;15.60;84.80;;;;;;6092855;23;20007;-66
2021/07/02 03:55:06;;;;;;;3.42;2.15;;;15.60;84.90;;;;;;6094067;23;20011;-65
2021/07/02 03:57:32;;;;;;;9.15;3.50;;;15.60;84.90;;;;;;6093799;23;20069;-66
2021/07/02 03:59:59;;;;;;;4.65;1.60;;;15.60;84.90;;;;;;6094038;23;19999;-65
2021/07/02 04:02:25;;;;;;;8.07;1.17;;;15.60;84.90;;;;;;6094507;23;20029;-66
2021/07/02 04:04:52;;;;;;;6.60;1.50;;;15.60;84.90;;;;;;6093942;23;20033;-65
2021/07/02 04:07:20;;;;;;;6.53;2.10;;;15.60;85.00;;;;;;6094109;23;20006;-65
2021/07/02 04:09:46;;;;;;;5.35;2.13;;;15.60;85.00;;;;;;6092983;23;20014;-65
2021/07/02 04:12:13;;;;;;;6.45;1.75;;;15.60;85.00;;;;;;6094423;23;20435;-65
2021/07/02 04:14:39;;;;;;;4.78;1.77;;;15.60;85.00;;;;;;6093689;23;20018;-66
2021/07/02 04:17:06;;;;;;;7.70;2.00;;;15.60;85.00;;;;;;6094140;23;20450;-66
2021/07/02 04:19:32;;;;;;;11.82;3.92;;;15.60;84.90;;;;;;6092219;23;20011;-65
2021/07/02 04:21:59;;;;;;;8.00;2.33;;;15.60;85.00;;;;;;6093109;23;20006;-66
2021/07/02 04:24:27;;;;;;;4.78;1.70;;;15.60;85.00;;;;;;6094176;23;20080;-66
2021/07/02 04:26:54;;;;;;;5.15;2.17;;;15.60;84.90;;;;;;6092679;23;20010;-66
2021/07/02 04:29:20;;;;;;;7.53;2.85;;;15.60;84.90;;;;;;6094299;23;20016;-65
2021/07/02 04:31:47;;;;;;;8.88;2.50;;;15.60;84.90;;;;;;6092917;23;20609;-66
2021/07/02 04:34:13;;;;;;;8.75;1.90;;;15.60;84.80;;;;;;6094050;23;20458;-65
2021/07/02 04:36:40;;;;;;;7.07;2.40;;;15.50;84.80;;;;;;6093665;23;20431;-65
2021/07/02 04:39:07;;;;;;;7.50;2.38;;;15.50;84.80;;;;;;6093694;23;19995;-66
2021/07/02 04:41:33;;;;;;;7.65;3.05;;;15.60;84.80;;;;;;6094245;23;19998;-65
2021/07/02 04:43:59;;;;;;;9.23;2.15;;;15.60;84.80;;;;;;6092804;23;20003;-65
2021/07/02 04:46:26;;;;;;;4.85;1.85;;;15.50;84.70;;;;;;6094099;23;20074;-64
2021/07/02 04:48:52;;;;;;;8.27;2.30;;;15.50;84.70;;;;;;6092570;23;19998;-64
2021/07/02 04:51:19;;;;;;;7.97;2.33;;;15.60;84.70;;;;;;6094048;23;20006;-64
2021/07/02 04:53:45;;;;;;;3.47;1.40;;;15.60;84.60;;;;;;6093366;23;20715;-64
2021/07/02 04:56:13;;;;;;;9.77;1.60;;;15.50;84.50;;;;;;6093653;23;20371;-65
2021/07/02 04:58:43;;;;;;;8.43;2.78;;;15.60;84.50;;;;;;6094253;23;20488;-64
2021/07/02 05:01:13;;;;;;;3.45;1.75;;;15.50;84.40;;;;;;6091559;23;20044;-65
2021/07/02 05:03:42;;;;;;;10.10;2.42;;;15.60;84.50;;;;;;6092248;23;19999;-65
2021/07/02 05:06:09;;;;;;;5.85;2.50;;;15.50;84.40;;;;;;6091485;23;20003;-65
2021/07/02 05:08:37;;;;;;;6.38;1.77;;;15.50;84.40;;;;;;6092254;23;20009;-66
2021/07/02 05:11:04;;;;;;;7.22;2.47;;;15.60;84.40;;;;;;6091523;23;20006;-66
2021/07/02 05:13:32;;;;;;;8.20;1.73;;;15.60;84.40;;;;;;6091973;23;20013;-66
2021/07/02 05:16:38;;;;;;;7.20;2.53;;;15.50;84.30;;;;;;6092276;23;20006;-65
2021/07/02 05:19:44;;;;;;;4.85;1.75;;;15.50;84.40;;;;;;6090733;23;20394;-65
2021/07/02 05:22:50;;;;;;;5.25;2.15;;;15.60;84.40;;;;;;6091998;23;20082;-66
2021/07/02 05:25:56;;;;;;;9.13;2.45;;;15.60;84.40;;;;;;6092056;23;20006;-65
2021/07/02 05:29:02;;;;;;;5.85;3.00;;;15.60;84.40;;;;;;6091150;23;20030;-65
2021/07/02 05:32:08;;;;;;;10.73;2.03;;;15.60;84.30;;;;;;6091032;23;20494;-65
2021/07/02 05:35:14;;;;;;;6.65;1.25;;;15.60;84.30;;;;;;6092337;23;20542;-66
2021/07/02 05:37:43;;;;;;;7.50;2.10;;;15.50;84.20;;;;;;6093062;23;20739;-65
2021/07/02 05:40:12;;;;;;;7.40;1.73;;;15.50;84.20;;;;;;6092421;23;20665;-64
2021/07/02 05:42:39;;;;;;;6.32;1.92;;;15.50;84.20;;;;;;6091988;23;20002;-65
2021/07/02 05:45:06;;;;;;;7.03;1.50;;;15.50;84.10;;;;;;6092324;23;20002;-65
2021/07/02 05:47:58;;;;;;;4.25;2.03;;;15.50;84.10;;;;;;6093789;23;20002;-65
2021/07/02 05:50:25;;;;;;;7.82;2.58;;;15.50;84.10;;;;;;6093569;23;20007;-65
2021/07/02 05:52:54;;;;;;;7.40;1.67;;;15.50;84.10;;;;;;6092684;23;19998;-65
2021/07/02 05:55:22;;;;;;;7.22;2.42;;;15.50;84.10;;;;;;6093537;23;20085;-65
2021/07/02 05:57:49;;;;;;;5.20;1.90;;;15.50;84.10;;;;;;6092348;23;20003;-65
2021/07/02 06:00:16;;;;;;;11.07;3.70;;;15.50;84.10;;;;;;6093924;23;20356;-65
2021/07/02 06:02:42;;;;;;;4.65;1.55;;;15.50;84.10;;;;;;6092215;23;20003;-65
2021/07/02 06:05:09;;;;;;;8.00;1.85;;;15.50;84.20;;;;;;6093732;23;20010;-65
2021/07/02 06:08:02;;;;;;;4.30;1.98;;;15.50;84.20;;;;;;6093454;23;20011;-65
2021/07/02 06:10:30;;;;;;;6.18;2.00;;;15.50;84.20;;;;;;6087454;23;20026;-65
2021/07/02 06:12:57;;;;;;;4.95;1.75;;;15.50;84.20;;;;;;6093532;23;20003;-65
2021/07/02 06:15:24;;;;;;;6.32;2.80;;;15.50;84.20;;;;;;6092323;23;20017;-65
2021/07/02 06:17:52;;;;;;;3.13;1.42;;;15.50;84.10;;;;;;6093590;23;20014;-65
2021/07/02 06:20:22;;;;;;;4.20;1.50;;;15.50;84.10;;;;;;6093538;23;20038;-65
2021/07/02 06:22:51;;;;;;;7.18;1.50;;;15.60;84.20;;;;;;6092826;23;20049;-65
2021/07/02 06:25:17;;;;;;;6.05;1.85;;;15.50;84.20;;;;;;6094363;23;20007;-65
2021/07/02 06:27:44;;;;;;;7.40;1.70;;;15.60;84.20;;;;;;6092144;23;20007;-65
2021/07/02 06:30:11;;;;;;;7.05;1.80;;;15.50;84.10;;;;;;6092787;23;20347;-65
2021/07/02 06:32:38;;;;;;;7.03;1.75;;;15.50;84.00;;;;;;6091821;23;19998;-65
2021/07/02 06:35:05;;;;;;;8.80;2.38;;;15.60;84.10;;;;;;6093424;23;20014;-65
2021/07/02 06:37:31;;;;;;;6.65;2.00;;;15.50;84.00;;;;;;6092468;23;20007;-65
2021/07/02 06:39:58;;;;;;;6.00;1.73;;;15.60;84.10;;;;;;6093523;23;20014;-65
2021/07/02 06:42:24;;;;;;;6.15;1.60;;;15.60;84.10;;;;;;6093198;23;20331;-65
2021/07/02 06:44:50;;;;;;;6.43;2.40;;;15.50;84.00;;;;;;6092372;23;20354;-65
2021/07/02 06:47:17;;;;;;;6.35;1.67;;;15.60;84.00;;;;;;6094944;23;20006;-65
2021/07/02 06:49:43;;;;;;;8.35;1.98;;;15.60;84.00;;;;;;6093905;23;20327;-65
2021/07/02 06:52:10;;;;;;;6.28;1.65;;;15.60;84.70;;;;;;6095372;23;20026;-65
2021/07/02 06:54:36;;;;;;;5.88;1.98;;;15.60;84.10;;;;;;6093931;23;20010;-65
2021/07/02 06:57:04;;;;;;;7.50;2.28;;;15.60;84.10;;;;;;6095206;23;20022;-65
2021/07/02 06:59:33;;;;;;;5.93;1.95;;;15.60;84.20;;;;;;6094669;23;20018;-64
2021/07/02 07:02:00;;;;;;;6.65;2.65;;;15.60;84.20;;;;;;6094688;23;20013;-66
2021/07/02 07:04:37;;;;;;;11.65;2.70;;;15.70;84.30;;;;;;6095416;23;20002;-65
2021/07/02 07:07:05;;;;;;;5.13;2.30;;;15.70;84.40;;;;;;6093755;23;20026;-65
2021/07/02 07:09:33;;;;;;;5.10;2.25;;;15.70;84.50;;;;;;6094790;23;20089;-65
2021/07/02 07:12:00;;;;;;;5.50;1.77;;;15.70;84.50;;;;;;6093831;23;20435;-65
2021/07/02 07:14:27;;;;;;;3.55;1.55;;;15.70;84.60;;;;;;6094644;23;20010;-65
2021/07/02 07:16:54;;;;;;;7.90;1.48;;;15.70;84.60;;;;;;6094706;23;20003;-65
2021/07/02 07:19:28;;;;;;;7.35;2.00;;;15.70;84.70;;;;;;6094232;23;20060;-65
2021/07/02 07:21:55;;;;;;;5.22;1.60;;;15.70;84.80;;;;;;6095089;23;20003;-65
2021/07/02 07:24:22;;;;;;;3.80;1.58;;;15.70;84.80;;;;;;6093823;23;20005;-65
2021/07/02 07:26:49;;;;;;;4.88;1.45;;;15.80;85.00;;;;;;6094999;23;20037;-65
2021/07/02 07:29:15;;;;;;;6.30;1.70;;;15.80;85.00;;;;;;6093631;23;20003;-65
2021/07/02 07:31:42;;;;;;;9.50;1.88;;;15.80;85.10;;;;;;6095207;23;20009;-65
2021/07/02 07:34:08;;;;;;;9.02;2.30;;;15.80;85.10;;;;;;6094281;23;20431;-65
2021/07/02 07:36:37;;;;;;;4.13;1.63;;;15.80;85.10;;;;;;6094186;23;20138;-65
2021/07/02 07:39:04;;;;;;;4.88;1.52;;;15.90;85.10;;;;;;6095434;23;20006;-66
2021/07/02 07:41:31;;;;;;;6.20;1.88;;;15.90;85.10;;;;;;6093378;23;20002;-65
2021/07/02 07:43:57;;;;;;;5.53;1.63;;;15.90;85.10;;;;;;6095169;23;20750;-65
2021/07/02 07:46:27;;;;;;;3.78;1.13;;;15.90;85.10;;;;;;6093361;23;20009;-65
2021/07/02 07:48:54;;;;;;;7.32;1.80;;;15.90;85.10;;;;;;6095038;23;20036;-66
2021/07/02 07:53:47;;;;;;;4.50;1.30;;;15.90;85.10;;;;;;6093758;23;20014;-65
2021/07/02 07:56:13;;;;;;;7.50;1.98;;;16.00;85.10;;;;;;6094723;23;20050;-66
2021/07/02 07:58:40;;;;;;;4.82;1.40;;;16.00;85.10;;;;;;6092691;23;19998;-66
2021/07/02 08:01:06;;;;;;;4.75;2.03;;;16.00;85.10;;;;;;6094921;23;20002;-65
2021/07/02 08:03:33;;;;;;;10.82;2.45;;;16.00;85.10;;;;;;6093173;23;20002;-66
2021/07/02 08:05:59;;;;;;;5.65;2.53;;;16.00;85.10;;;;;;6094773;23;20007;-65
2021/07/02 08:08:26;;;;;;;6.22;2.25;;;16.00;85.10;;;;;;6093528;23;20331;-65
2021/07/02 08:10:52;;;;;;;7.65;1.70;;;16.10;85.10;;;;;;6094027;23;20018;-65
2021/07/02 08:13:19;;;;;;;8.18;1.80;;;16.10;85.10;;;;;;6094583;23;20301;-66
2021/07/02 08:15:45;;;;;;;6.28;1.40;;;16.10;85.00;;;;;;6093633;23;20015;-65
2021/07/02 08:18:12;;;;;;;7.22;2.15;;;16.10;84.90;;;;;;6094521;23;20002;-66
2021/07/02 08:20:39;;;;;;;8.88;1.50;;;16.10;84.80;;;;;;6093415;23;20007;-66
2021/07/02 08:23:09;;;;;;;6.95;2.28;;;16.20;84.70;;;;;;6094151;23;20002;-66
2021/07/02 08:25:38;;;;;;;5.38;1.80;;;16.20;84.50;;;;;;6093118;23;20026;-66
2021/07/02 08:30:51;;;;;;;6.80;1.73;;;16.20;84.30;;;;;;6094471;23;20090;-65
2021/07/02 08:33:19;;;;;;;7.45;1.80;;;16.30;84.30;;;;;;6093149;23;20443;-65
2021/07/02 08:35:49;;;;;;;9.90;2.38;;;16.30;83.90;;;;;;6094366;23;20018;-66
2021/07/02 08:38:16;;;;;;;3.22;1.55;;;16.30;83.60;;;;;;6092597;23;20002;-66
2021/07/02 08:40:43;;;;;;;5.55;1.83;;;16.30;83.50;;;;;;6094575;23;20033;-65
2021/07/02 08:43:10;;;;;;;5.22;2.08;;;16.30;83.40;;;;;;6091819;23;20002;-66
2021/07/02 08:45:37;;;;;;;4.30;1.63;;;16.30;83.30;;;;;;6093638;23;20006;-65
2021/07/02 08:48:06;;;;;;;4.75;1.85;;;16.40;83.20;;;;;;6094326;23;20006;-66
2021/07/02 08:50:34;;;;;;;7.63;2.00;;;16.40;83.10;;;;;;6092795;23;19994;-66
2021/07/02 08:53:01;;;;;;;11.27;2.65;;;16.40;83.00;;;;;;6094063;23;20065;-66
2021/07/02 08:55:27;;;;;;;5.30;2.08;;;16.40;82.90;;;;;;6092990;23;20057;-65
2021/07/02 08:57:54;;;;;;;8.40;1.90;;;16.40;82.80;;;;;;6094164;23;19999;-66
2021/07/02 09:00:20;;;;;;;7.13;1.55;;;16.40;82.60;;;;;;6092903;23;20461;-65
2021/07/02 09:02:47;;;;;;;5.68;2.65;;;16.40;82.40;;;;;;6093751;23;19999;-65
2021/07/02 09:05:30;;;;;;;3.55;1.50;;;16.40;82.30;;;;;;6093906;23;20002;-65
2021/07/02 09:07:56;;;;;;;6.90;1.48;;;16.40;82.20;;;;;;6092766;23;20025;-65
2021/07/02 09:10:36;;;;;;;5.70;2.58;;;16.50;82.10;;;;;;6093853;23;20014;-65
2021/07/02 09:13:03;;;;;;;6.60;1.50;;;16.40;82.00;;;;;;6092765;23;20002;-66
2021/07/02 09:15:30;;;;;;;6.40;1.80;;;16.50;81.90;;;;;;6093682;23;20034;-65
2021/07/02 09:17:59;;;;;;;8.07;2.78;;;16.50;81.80;;;;;;6093269;23;20003;-65
2021/07/02 09:20:35;;;;;;;6.53;2.85;;;16.50;81.70;;;;;;6093183;23;20531;-65
2021/07/02 09:23:03;;;;;;;4.60;1.65;;;16.50;81.60;;;;;;6093846;23;20002;-66
2021/07/02 09:25:32;;;;;;;10.57;2.10;;;16.50;81.40;;;;;;6092622;23;20006;-65
2021/07/02 09:28:07;;;;;;;3.88;1.30;;;16.50;81.40;;;;;;6093942;23;20347;-65
2021/07/02 09:30:37;;;;;;;5.40;1.33;;;16.50;81.30;;;;;;6092694;23;20002;-65
2021/07/02 09:33:27;;;;;;;7.15;2.05;;;16.50;81.20;;;;;;6091888;23;20339;-65
2021/07/02 09:36:01;;;;;;;5.15;1.73;;;16.60;81.20;;;;;;6080027;23;20095;-65
2021/07/02 09:38:41;;;;;;;6.40;1.93;;;16.60;81.40;;;;;;6092447;23;19995;-65
2021/07/02 09:41:10;;;;;;;4.40;1.48;;;16.60;80.10;;;;;;6093633;23;20221;-66
2021/07/02 09:43:38;;;;;;;5.80;2.38;;;16.50;79.80;;;;;;6092693;23;19999;-65
2021/07/02 09:46:07;;;;;;;5.57;1.52;;;16.60;79.80;;;;;;6092904;23;20007;-65
2021/07/02 09:48:44;;;;;;;8.88;1.67;;;16.60;79.80;;;;;;6093493;23;19998;-65
2021/07/02 09:51:12;;;;;;;4.50;1.52;;;16.60;79.70;;;;;;6092176;23;20026;-65
2021/07/02 09:53:40;;;;;;;4.72;1.40;;;16.70;79.60;;;;;;6093513;23;20006;-65
2021/07/02 09:56:16;;;;;;;6.30;1.48;;;16.60;79.50;;;;;;6092513;23;20327;-65
2021/07/02 09:58:43;;;;;;;5.32;1.58;;;16.70;79.50;;;;;;6093654;23;20009;-66
2021/07/02 10:01:11;;;;;;;7.15;2.03;;;16.70;79.50;;;;;;6093224;23;19998;-65
2021/07/02 10:03:44;;;;;;;7.18;1.45;;;16.70;79.40;;;;;;6091416;23;20006;-65
2021/07/02 10:06:25;;;;;;;4.97;1.85;;;16.70;79.50;;;;;;6093788;23;20063;-66
2021/07/02 10:08:52;;;;;;;5.13;1.52;;;16.80;79.50;;;;;;6092246;23;20018;-66
2021/07/02 10:11:19;;;;;;;4.97;1.50;;;16.80;79.20;;;;;;6093345;23;20423;-66
2021/07/02 10:13:51;;;;;;;3.53;0.98;;;16.80;78.90;;;;;;6092165;23;20023;-65
2021/07/02 10:16:19;;;;;;;7.68;1.50;;;16.90;78.60;;;;;;6093456;23;20007;-65
2021/07/02 10:18:47;;;;;;;6.25;2.80;;;16.80;78.30;;;;;;6093402;23;20082;-66
2021/07/02 10:21:14;;;;;;;8.77;1.85;;;16.90;78.40;;;;;;6093314;23;20002;-65
2021/07/02 10:23:44;;;;;;;3.00;1.20;;;16.90;78.40;;;;;;6095527;23;20057;-65
2021/07/02 10:26:13;;;;;;;6.72;1.77;;;17.00;78.20;;;;;;6094224;23;20021;-65
2021/07/02 10:28:41;;;;;;;4.72;1.33;;;17.00;78.10;;;;;;6095508;23;19999;-65
2021/07/02 10:31:10;;;;;;;5.07;1.40;;;17.00;78.20;;;;;;6092710;23;20083;-65
2021/07/02 10:33:45;;;;;;;6.03;2.63;;;17.00;78.30;;;;;;6094335;23;20703;-66
2021/07/02 10:36:14;;;;;;;4.43;2.45;;;17.10;78.70;;;;;;6095325;23;20002;-67
2021/07/02 10:38:46;;;;;;;4.75;1.63;;;17.10;78.60;;;;;;6094264;23;20008;-66
2021/07/02 10:41:18;;;;;;;7.65;1.45;;;17.20;78.50;;;;;;6095441;23;20006;-65
2021/07/02 10:44:08;;;;;;;8.00;1.20;;;17.20;78.40;;;;;;6094238;23;20009;-66
2021/07/02 10:46:39;;;;;;;5.70;1.52;;;17.20;78.10;;;;;;6095286;23;20002;-66
2021/07/02 10:49:12;;;;;;;5.93;1.50;;;17.20;77.70;;;;;;6093444;23;20335;-66
2021/07/02 10:51:49;;;;;;;5.40;1.55;;;17.30;77.70;;;;;;6094232;23;20006;-66
2021/07/02 10:54:20;;;;;;;5.85;1.50;;;17.30;77.80;;;;;;6095005;23;20049;-66
2021/07/02 10:56:49;;;;;;;3.78;1.13;;;17.40;78.10;;;;;;6094026;23;20073;-66
2021/07/02 10:59:17;;;;;;;6.90;1.33;;;17.40;78.00;;;;;;6095864;23;20356;-66
2021/07/02 11:02:12;;;;;;;6.60;1.45;;;17.30;77.60;;;;;;6094394;23;20006;-65
2021/07/02 11:04:52;;;;;;;5.85;1.48;;;17.30;77.50;;;;;;6092147;23;20074;-66
2021/07/02 11:07:22;;;;;;;4.95;1.58;;;17.40;77.80;;;;;;6095238;23;20104;-65
2021/07/02 11:10:03;;;;;;;6.72;1.20;;;17.50;78.00;;;;;;6093926;23;20022;-66
2021/07/02 11:12:31;;;;;;;5.18;1.63;;;17.50;78.00;;;;;;6095254;23;20003;-66
2021/07/02 11:15:05;;;;;;;8.15;1.60;;;17.60;77.70;;;;;;6094545;23;20017;-65
2021/07/02 11:17:40;;;;;;;5.13;1.00;;;17.60;77.50;;;;;;6093998;23;20141;-65
2021/07/02 11:20:07;;;;;;;3.42;0.88;;;17.70;77.10;;;;;;6095007;23;20006;-65
2021/07/02 11:22:38;;;;;;;3.70;1.50;;;17.80;76.90;;;;;;6093633;23;20046;-65
2021/07/02 11:25:10;;;;;;;3.55;1.00;;;17.80;76.70;;;;;;6094894;23;20009;-65
2021/07/02 11:27:42;;;;;;;1.75;0.88;;;17.90;76.50;;;;;;6094442;23;20003;-65
2021/07/02 11:33:21;;;;;;;1.52;0.70;;;18.00;76.70;;;;;;6079080;23;20033;-66
2021/07/02 11:35:53;;;;;;;4.47;0.93;;;18.10;76.60;;;;;;6093488;23;20097;-66
2021/07/02 11:38:21;;;;;;;2.00;1.13;;;18.10;76.40;;;;;;6095142;23;20002;-66
2021/07/02 11:40:51;;;;;;;2.67;0.98;;;18.20;75.90;;;;;;6094234;23;20003;-66
2021/07/02 11:43:39;;;;;;;2.50;0.95;;;18.20;75.60;;;;;;6094052;23;20002;-65
2021/07/02 11:46:10;;;;;;;4.57;1.40;;;18.20;75.80;;;;;;6094962;23;20010;-65
2021/07/02 11:48:53;;;;;;;5.47;1.27;;;18.30;75.50;;;;;;6093386;23;19998;-66
2021/07/02 11:51:23;;;;;;;4.30;1.70;;;18.40;75.70;;;;;;6094622;23;20007;-66
2021/07/02 11:53:59;;;;;;;3.80;1.63;;;18.40;74.70;;;;;;6094021;23;20081;-65
2021/07/02 11:56:28;;;;;;;4.90;1.15;;;18.50;74.60;;;;;;6093677;23;20006;-66
2021/07/02 11:59:10;;;;;;;6.75;2.55;;;18.50;74.40;;;;;;6094677;23;20435;-65
2021/07/02 12:01:44;;;;;;;7.57;2.15;;;18.60;73.90;;;;;;6092443;23;20338;-65
2021/07/02 12:04:19;;;;;;;8.07;2.42;;;18.60;73.60;;;;;;6094427;23;20081;-66
2021/07/02 12:06:47;;;;;;;6.53;2.75;;;18.60;73.00;;;;;;6093866;23;20044;-66
2021/07/02 12:09:27;;;;;;;7.28;2.10;;;18.60;72.50;;;;;;6093207;23;20049;-66
2021/07/02 12:11:58;;;;;;;10.20;2.70;;;18.50;72.20;;;;;;6093733;23;20003;-66
2021/07/02 12:14:37;;;;;;;12.57;3.40;;;18.50;72.50;;;;;;6093262;23;20085;-66
2021/07/02 12:17:05;;;;;;;5.90;2.58;;;18.50;72.20;;;;;;6094475;23;20502;-65
2021/07/02 12:19:41;;;;;;;10.02;3.08;;;18.50;72.10;;;;;;6093992;23;20050;-65
2021/07/02 12:22:11;;;;;;;11.70;2.30;;;18.50;72.30;;;;;;6093934;23;20002;-66
2021/07/02 12:24:43;;;;;;;10.00;2.40;;;18.40;72.10;;;;;;6094472;23;20030;-65
2021/07/02 12:27:13;;;;;;;7.60;2.00;;;18.50;71.90;;;;;;6093338;23;20127;-66
2021/07/02 12:29:41;;;;;;;6.95;2.50;;;18.40;71.70;;;;;;6094301;23;20054;-66
2021/07/02 12:32:17;;;;;;;9.55;3.78;;;18.40;71.80;;;;;;6093361;23;20013;-66
2021/07/02 12:34:48;;;;;;;10.57;2.58;;;18.40;71.80;;;;;;6094008;23;20014;-65
2021/07/02 12:37:18;;;;;;;11.88;3.28;;;18.40;71.80;;;;;;6093892;23;20083;-66
2021/07/02 12:39:50;;;;;;;7.53;2.30;;;18.40;71.80;;;;;;6093155;23;20073;-66
2021/07/02 12:42:21;;;;;;;7.03;2.83;;;18.40;71.80;;;;;;6094259;23;20030;-66
2021/07/02 12:44:57;;;;;;;8.88;2.75;;;18.40;71.80;;;;;;6092490;23;20031;-67
2021/07/02 12:47:24;;;;;;;6.50;2.38;;;18.40;72.50;;;;;;6094147;23;20419;-65
2021/07/02 12:49:54;;;;;;;7.20;2.33;;;18.50;71.80;;;;;;6093355;23;20364;-67
2021/07/02 12:54:54;;;;;;;14.73;2.45;;;18.50;71.80;;;;;;6094619;23;20336;-67
2021/07/02 12:57:54;;;;;;;8.07;2.75;;;18.50;71.60;;;;;;6092889;23;20075;-67
2021/07/02 13:00:24;;;;;;;8.88;2.75;;;18.50;71.50;;;;;;6093883;23;20069;-66
2021/07/02 13:02:52;;;;;;;6.10;2.97;;;18.50;71.50;;;;;;6093139;23;20089;-66
2021/07/02 13:05:25;;;;;;;12.48;2.22;;;18.60;71.60;;;;;;6093581;23;20006;-66
2021/07/02 13:08:11;;;;;;;10.10;2.95;;;18.60;71.40;;;;;;6094148;23;20003;-67
2021/07/02 13:10:47;;;;;;;10.80;3.10;;;18.60;71.30;;;;;;6092483;23;20015;-67